createdAt,value
2023-10-23T00:01:26.286Z,100.00
2023-10-23T00:03:59.612Z,100.00
2023-10-23T00:06:32.656Z,100.00
2023-10-23T00:09:05.673Z,99.98
2023-10-23T00:11:38.341Z,99.55
2023-10-23T00:14:10.808Z,99.32
2023-10-23T00:16:47.521Z,98.91
2023-10-23T00:19:20.255Z,98.37
2023-10-23T00:21:52.820Z,97.87
2023-10-23T00:24:25.455Z,97.90
2023-10-23T00:26:57.911Z,97.75
2023-10-23T00:29:30.227Z,97.40
2023-10-23T00:32:02.706Z,97.32
2023-10-23T00:34:35.261Z,97.23
2023-10-23T00:37:08.128Z,97.14
2023-10-23T00:39:41.086Z,97.05
2023-10-23T00:42:14.291Z,97.00
2023-10-23T00:44:46.815Z,96.93
2023-10-23T00:47:19.821Z,96.87
2023-10-23T00:49:52.254Z,96.59
2023-10-23T00:52:26.509Z,96.33
2023-10-23T00:55:00.465Z,96.32
2023-10-23T00:57:34.064Z,96.33
2023-10-23T01:00:08.006Z,96.19
2023-10-23T01:02:41.050Z,96.08
2023-10-23T01:05:15.156Z,95.87
2023-10-23T01:07:47.744Z,95.70
2023-10-23T01:10:20.584Z,95.93
2023-10-23T01:12:57.452Z,95.87
2023-10-23T01:15:32.638Z,96.21
2023-10-23T01:18:05.445Z,96.39
2023-10-23T01:20:38.124Z,96.78
2023-10-23T01:23:10.752Z,97.08
2023-10-23T01:25:45.107Z,97.77
2023-10-23T01:28:18.288Z,97.88
2023-10-23T01:30:51.014Z,98.21
2023-10-23T01:33:23.575Z,98.37
2023-10-23T01:35:56.140Z,99.08
2023-10-23T01:38:28.780Z,99.79
2023-10-23T01:41:01.307Z,100.00
2023-10-23T01:43:34.014Z,100.00
2023-10-23T01:46:06.502Z,100.00
2023-10-23T01:48:41.431Z,100.00
2023-10-23T01:51:13.870Z,100.00
2023-10-23T01:53:46.595Z,100.00
2023-10-23T01:56:19.226Z,100.00
2023-10-23T01:58:52.781Z,100.00
2023-10-23T02:01:28.385Z,100.00
2023-10-23T02:04:02.084Z,100.00
2023-10-23T02:06:34.842Z,100.00
2023-10-23T02:09:09.299Z,100.00
2023-10-23T02:11:42.237Z,100.00
2023-10-23T02:14:16.361Z,100.00
2023-10-23T02:16:49.079Z,100.00
2023-10-23T02:19:21.482Z,100.00
2023-10-23T02:21:54.049Z,100.00
2023-10-23T02:24:27.032Z,100.00
2023-10-23T02:27:02.139Z,100.00
2023-10-23T02:29:34.639Z,100.00
2023-10-23T02:32:07.906Z,100.00
2023-10-23T02:34:41.368Z,100.00
2023-10-23T02:37:14.091Z,100.00
2023-10-23T02:39:47.248Z,100.00
2023-10-23T02:42:19.929Z,100.00
2023-10-23T02:44:52.381Z,100.00
2023-10-23T02:47:24.858Z,100.00
2023-10-23T02:49:58.147Z,100.00
2023-10-23T02:52:32.821Z,100.00
2023-10-23T02:55:05.718Z,100.00
2023-10-23T02:57:38.222Z,100.00
2023-10-23T03:00:12.329Z,100.00
2023-10-23T03:02:45.814Z,100.00
2023-10-23T03:05:18.814Z,100.00
2023-10-23T03:07:51.839Z,100.00
2023-10-23T03:10:24.409Z,100.00
2023-10-23T03:12:57.102Z,100.00
2023-10-23T03:15:30.287Z,100.00
2023-10-23T03:18:05.307Z,100.00
2023-10-23T03:20:38.085Z,100.00
2023-10-23T03:23:10.910Z,100.00
2023-10-23T03:25:43.904Z,100.00
2023-10-23T03:28:17.877Z,100.00
2023-10-23T03:30:51.276Z,100.00
2023-10-23T03:33:24.019Z,100.00
2023-10-23T03:35:56.541Z,100.00
2023-10-23T03:38:28.872Z,100.00
2023-10-23T03:41:04.244Z,100.00
2023-10-23T03:43:36.604Z,100.00
2023-10-23T03:46:09.429Z,100.00
2023-10-23T03:48:43.259Z,100.00
2023-10-23T03:51:15.795Z,100.00
2023-10-23T03:53:50.321Z,100.00
2023-10-23T03:56:22.782Z,100.00
2023-10-23T03:58:55.461Z,100.00
2023-10-23T04:01:28.185Z,100.00
2023-10-23T04:04:00.974Z,100.00
2023-10-23T04:06:35.730Z,100.00
2023-10-23T04:09:08.775Z,100.00
2023-10-23T04:11:41.113Z,100.00
2023-10-23T04:14:13.531Z,100.00
2023-10-23T04:16:46.183Z,100.00
2023-10-23T04:19:21.522Z,100.00
2023-10-23T04:21:53.899Z,100.00
2023-10-23T04:24:26.609Z,100.00
2023-10-23T04:26:58.937Z,100.00
2023-10-23T04:29:31.463Z,100.00
2023-10-23T04:32:05.610Z,100.00
2023-10-23T04:34:38.161Z,100.00
2023-10-23T04:37:10.703Z,100.00
2023-10-23T04:39:43.419Z,100.00
2023-10-23T04:42:15.936Z,100.00
2023-10-23T04:44:51.298Z,100.00
2023-10-23T04:47:23.916Z,100.00
2023-10-23T04:49:56.588Z,100.00
2023-10-23T04:52:28.876Z,100.00
2023-10-23T04:55:01.274Z,100.00
2023-10-23T04:57:36.567Z,100.00
2023-10-23T05:00:12.305Z,100.00
2023-10-23T05:02:44.597Z,100.00
2023-10-23T05:05:17.622Z,100.00
2023-10-23T05:07:50.276Z,100.00
2023-10-23T05:10:24.125Z,100.00
2023-10-23T05:12:57.369Z,100.00
2023-10-23T05:15:30.391Z,100.00
2023-10-23T05:18:03.450Z,100.00
2023-10-23T05:20:38.657Z,100.00
2023-10-23T05:23:13.288Z,100.00
2023-10-23T05:25:49.176Z,100.00
2023-10-23T05:28:21.719Z,100.00
2023-10-23T05:30:55.902Z,100.00
2023-10-23T05:33:28.806Z,100.00
2023-10-23T05:36:10.645Z,100.00
2023-10-23T05:38:43.196Z,100.00
2023-10-23T05:41:15.834Z,100.00
2023-10-23T05:43:50.359Z,100.00
2023-10-23T05:46:25.058Z,100.00
2023-10-23T05:48:58.049Z,100.00
2023-10-23T05:51:30.369Z,100.00
2023-10-23T05:54:04.250Z,100.00
2023-10-23T05:56:36.887Z,100.00
2023-10-23T05:59:10.896Z,100.00
2023-10-23T06:01:43.512Z,100.00
2023-10-23T06:04:16.147Z,100.00
2023-10-23T06:06:49.034Z,100.00
2023-10-23T06:09:21.727Z,100.00
2023-10-23T06:11:54.510Z,100.00
2023-10-23T06:14:27.157Z,100.00
2023-10-23T06:17:00.859Z,100.00
2023-10-23T06:19:34.801Z,100.00
2023-10-23T06:22:09.487Z,100.00
2023-10-23T06:24:43.046Z,100.00
2023-10-23T06:27:15.620Z,100.00
2023-10-23T06:29:51.381Z,100.00
2023-10-23T06:32:24.045Z,100.00
2023-10-23T06:34:56.518Z,100.00
2023-10-23T06:37:29.151Z,100.00
2023-10-23T06:40:01.888Z,100.00
2023-10-23T06:42:34.764Z,100.00
2023-10-23T06:45:08.556Z,100.00
2023-10-23T06:47:42.010Z,100.00
2023-10-23T06:50:15.023Z,100.00
2023-10-23T06:52:47.984Z,99.92
2023-10-23T06:55:20.820Z,99.68
2023-10-23T06:57:53.810Z,99.08
2023-10-23T07:00:26.672Z,98.93
2023-10-23T07:02:59.392Z,98.33
2023-10-23T07:05:33.034Z,97.48
2023-10-23T07:08:06.092Z,96.94
2023-10-23T07:10:39.427Z,96.51
2023-10-23T07:13:22.102Z,96.20
2023-10-23T07:15:55.914Z,95.89
2023-10-23T07:18:29.859Z,95.70
2023-10-23T07:21:04.620Z,95.28
2023-10-23T07:23:37.306Z,94.41
2023-10-23T07:26:14.441Z,94.22
2023-10-23T07:28:47.187Z,93.70
2023-10-23T07:31:20.566Z,92.74
2023-10-23T07:33:55.697Z,92.17
2023-10-23T07:36:28.306Z,92.26
2023-10-23T07:39:02.539Z,91.30
2023-10-23T07:41:34.946Z,90.71
2023-10-23T07:44:07.863Z,87.86
2023-10-23T07:46:41.198Z,87.71
2023-10-23T07:49:14.367Z,86.96
2023-10-23T07:51:47.189Z,85.37
2023-10-23T07:54:20.152Z,84.25
2023-10-23T07:56:56.610Z,83.69
2023-10-23T07:59:31.556Z,83.81
2023-10-23T08:02:04.481Z,82.39
2023-10-23T08:04:37.082Z,81.48
2023-10-23T08:07:09.978Z,78.39
2023-10-23T08:09:45.356Z,77.71
2023-10-23T08:12:18.444Z,77.45
2023-10-23T08:14:51.928Z,77.63
2023-10-23T08:20:05.349Z,75.39
2023-10-23T08:22:38.249Z,75.53
2023-10-23T08:25:11.643Z,76.25
2023-10-23T08:27:44.347Z,75.40
2023-10-23T08:30:24.542Z,74.94
2023-10-23T08:32:57.465Z,75.22
2023-10-23T08:35:35.260Z,74.72
2023-10-23T08:38:09.989Z,73.97
2023-10-23T08:40:43.324Z,74.03
2023-10-23T08:43:16.240Z,73.47
2023-10-23T08:45:55.823Z,73.65
2023-10-23T08:48:29.305Z,74.25
2023-10-23T08:51:04.623Z,73.24
2023-10-23T08:53:41.183Z,73.50
2023-10-23T08:56:14.893Z,73.70
2023-10-23T08:58:58.105Z,73.86
2023-10-23T09:01:32.586Z,73.33
2023-10-23T09:04:08.553Z,71.28
2023-10-23T09:06:42.141Z,70.28
2023-10-23T09:09:14.980Z,70.12
2023-10-23T09:11:50.026Z,70.60
2023-10-23T09:14:29.831Z,70.08
2023-10-23T09:17:05.101Z,70.73
2023-10-23T09:19:41.386Z,71.21
2023-10-23T09:22:14.431Z,71.47
2023-10-23T09:24:48.115Z,72.02
2023-10-23T09:27:25.877Z,72.62
2023-10-23T09:30:08.322Z,72.00
2023-10-23T09:32:41.643Z,72.02
2023-10-23T09:35:14.821Z,71.12
2023-10-23T09:37:47.668Z,71.63
2023-10-23T09:40:20.557Z,71.58
2023-10-23T09:42:53.459Z,70.22
2023-10-23T09:45:26.557Z,69.24
2023-10-23T09:48:02.061Z,69.19
2023-10-23T09:50:37.656Z,69.71
2023-10-23T09:53:12.854Z,68.78
2023-10-23T09:55:45.850Z,67.93
2023-10-23T09:58:23.032Z,68.25
2023-10-23T10:00:58.359Z,68.91
2023-10-23T10:03:35.807Z,69.24
2023-10-23T10:06:18.637Z,67.87
2023-10-23T10:08:53.408Z,67.27
2023-10-23T10:11:27.675Z,67.06
2023-10-23T10:14:01.154Z,67.46
2023-10-23T10:16:39.036Z,67.01
2023-10-23T10:19:13.535Z,66.98
2023-10-23T10:21:53.521Z,68.21
2023-10-23T10:24:27.993Z,68.13
2023-10-23T10:27:05.132Z,67.68
2023-10-23T10:29:37.934Z,68.12
2023-10-23T10:32:13.957Z,66.52
2023-10-23T10:34:58.333Z,66.54
2023-10-23T10:37:33.912Z,66.86
2023-10-23T10:40:11.070Z,67.99
2023-10-23T10:42:47.207Z,66.80
2023-10-23T10:45:22.057Z,65.72
2023-10-23T10:47:56.117Z,65.70
2023-10-23T10:50:37.225Z,65.40
2023-10-23T10:53:15.608Z,64.38
2023-10-23T10:55:50.270Z,64.14
2023-10-23T10:58:23.390Z,63.85
2023-10-23T11:00:55.964Z,63.04
2023-10-23T11:03:31.764Z,63.47
2023-10-23T11:06:05.659Z,63.44
2023-10-23T11:08:42.721Z,63.37
2023-10-23T11:11:16.037Z,63.04
2023-10-23T11:13:49.428Z,61.41
2023-10-23T11:16:22.865Z,61.69
2023-10-23T11:18:58.075Z,62.12
2023-10-23T11:21:30.808Z,61.16
2023-10-23T11:24:05.390Z,59.86
2023-10-23T11:26:38.438Z,58.73
2023-10-23T11:29:13.101Z,59.59
2023-10-23T11:31:46.786Z,60.06
2023-10-23T11:34:20.639Z,58.44
2023-10-23T11:36:54.028Z,58.00
2023-10-23T11:39:26.643Z,58.83
2023-10-23T11:42:01.752Z,59.13
2023-10-23T11:44:36.288Z,58.08
2023-10-23T11:47:09.970Z,58.82
2023-10-23T11:49:49.862Z,59.27
2023-10-23T11:52:24.843Z,59.73
2023-10-23T11:54:57.982Z,60.10
2023-10-23T11:57:30.704Z,59.89
2023-10-23T12:00:08.284Z,59.93
2023-10-23T12:02:46.221Z,60.83
2023-10-23T12:05:22.959Z,60.83
2023-10-23T12:07:57.255Z,60.62
2023-10-23T12:10:30.193Z,61.47
2023-10-23T12:13:03.949Z,61.46
2023-10-23T12:15:39.121Z,61.88
2023-10-23T12:18:12.545Z,61.29
2023-10-23T12:20:44.954Z,60.88
2023-10-23T12:23:17.774Z,60.94
2023-10-23T12:25:50.456Z,59.24
2023-10-23T12:28:23.147Z,59.46
2023-10-23T12:30:55.840Z,59.71
2023-10-23T12:33:36.088Z,60.25
2023-10-23T12:36:11.454Z,59.12
2023-10-23T12:38:45.562Z,59.30
2023-10-23T12:41:17.949Z,60.25
2023-10-23T12:43:50.561Z,60.88
2023-10-23T12:46:23.985Z,60.34
2023-10-23T12:48:56.648Z,59.77
2023-10-23T12:51:29.378Z,59.86
2023-10-23T12:54:04.454Z,60.45
2023-10-23T12:56:36.818Z,60.72
2023-10-23T12:59:09.404Z,61.86
2023-10-23T13:01:42.018Z,62.12
2023-10-23T13:04:14.649Z,61.99
2023-10-23T13:06:47.618Z,62.52
2023-10-23T13:09:20.230Z,62.19
2023-10-23T13:11:54.468Z,61.84
2023-10-23T13:14:27.600Z,61.39
2023-10-23T13:17:02.817Z,61.61
2023-10-23T13:19:35.615Z,61.83
2023-10-23T13:22:11.893Z,60.41
2023-10-23T13:24:44.680Z,60.48
2023-10-23T13:27:18.021Z,60.09
2023-10-23T13:29:50.753Z,58.80
2023-10-23T13:32:23.116Z,58.67
2023-10-23T13:34:55.646Z,58.90
2023-10-23T13:37:28.607Z,59.24
2023-10-23T13:40:01.188Z,58.95
2023-10-23T13:42:37.960Z,57.75
2023-10-23T13:45:13.220Z,58.55
2023-10-23T13:47:49.546Z,58.05
2023-10-23T13:50:21.945Z,58.75
2023-10-23T13:52:55.835Z,58.57
2023-10-23T13:55:28.690Z,58.33
2023-10-23T13:58:04.418Z,58.50
2023-10-23T14:00:36.688Z,57.77
2023-10-23T14:03:09.769Z,58.58
2023-10-23T14:05:44.488Z,58.36
2023-10-23T14:08:17.091Z,59.31
2023-10-23T14:11:58.538Z,59.87
2023-10-23T14:13:42.816Z,59.92
2023-10-23T14:16:16.227Z,60.01
2023-10-23T14:18:49.043Z,60.13
2023-10-23T14:21:21.627Z,60.34
2023-10-23T14:23:54.419Z,60.69
2023-10-23T14:26:30.440Z,61.05
2023-10-23T14:29:02.829Z,61.11
2023-10-23T14:31:35.342Z,61.56
2023-10-23T14:34:08.126Z,62.17
2023-10-23T14:36:42.746Z,62.93
2023-10-23T14:39:15.225Z,63.51
2023-10-23T14:41:47.742Z,63.99
2023-10-23T14:44:20.144Z,64.09
2023-10-23T14:46:54.013Z,64.55
2023-10-23T14:49:26.783Z,65.00
2023-10-23T14:51:59.858Z,65.55
2023-10-23T14:54:32.378Z,66.17
2023-10-23T14:57:05.333Z,66.72
2023-10-23T14:59:37.988Z,66.82
2023-10-23T15:02:13.389Z,67.60
2023-10-23T15:04:46.119Z,68.16
2023-10-23T15:07:19.020Z,68.80
2023-10-23T15:09:51.912Z,69.24
2023-10-23T15:12:24.533Z,69.67
2023-10-23T15:14:59.257Z,70.21
2023-10-23T15:17:31.747Z,70.81
2023-10-23T15:20:04.600Z,71.37
2023-10-23T15:22:37.174Z,72.15
2023-10-23T15:25:12.163Z,72.85
2023-10-23T15:27:44.762Z,73.60
2023-10-23T15:30:17.923Z,74.04
2023-10-23T15:32:50.634Z,74.53
2023-10-23T15:35:25.528Z,74.86
2023-10-23T15:37:59.723Z,75.28
2023-10-23T15:40:32.730Z,75.64
2023-10-23T15:43:05.174Z,76.21
2023-10-23T15:45:41.057Z,76.54
2023-10-23T15:48:13.662Z,77.23
2023-10-23T15:50:46.314Z,77.72
2023-10-23T15:53:19.581Z,78.25
2023-10-23T15:55:52.196Z,78.55
2023-10-23T15:58:28.203Z,79.16
2023-10-23T16:01:03.696Z,79.59
2023-10-23T16:03:38.208Z,80.18
2023-10-23T16:06:11.005Z,80.64
2023-10-23T16:08:43.722Z,81.17
2023-10-23T16:11:20.768Z,81.51
2023-10-23T16:13:53.490Z,82.03
2023-10-23T16:16:25.986Z,82.38
2023-10-23T16:18:58.667Z,82.78
2023-10-23T16:21:32.064Z,82.90
2023-10-23T16:24:06.064Z,83.10
2023-10-23T16:26:38.362Z,83.65
2023-10-23T16:29:10.957Z,84.03
2023-10-23T16:31:43.374Z,84.02
2023-10-23T16:34:16.161Z,84.51
2023-10-23T16:36:50.244Z,84.74
2023-10-23T16:39:23.044Z,84.80
2023-10-23T16:41:55.720Z,85.03
2023-10-23T16:44:37.533Z,85.29
2023-10-23T16:47:17.461Z,85.49
2023-10-23T16:49:53.182Z,85.76
2023-10-23T16:52:25.797Z,86.29
2023-10-23T16:55:00.028Z,86.75
2023-10-23T16:57:33.997Z,87.03
2023-10-23T17:00:07.797Z,87.14
2023-10-23T17:02:40.691Z,87.26
2023-10-23T17:05:13.997Z,87.41
2023-10-23T17:07:46.799Z,88.02
2023-10-23T17:10:20.695Z,88.25
2023-10-23T17:12:53.598Z,88.69
2023-10-23T17:15:29.420Z,88.88
2023-10-23T17:18:03.393Z,88.98
2023-10-23T17:20:39.948Z,89.34
2023-10-23T17:23:12.340Z,89.27
2023-10-23T17:25:46.992Z,89.37
2023-10-23T17:28:19.731Z,89.61
2023-10-23T17:31:00.199Z,89.88
2023-10-23T17:33:35.103Z,89.98
2023-10-23T17:36:08.729Z,89.86
2023-10-23T17:38:41.173Z,89.82
2023-10-23T17:41:18.531Z,89.81
2023-10-23T17:43:50.980Z,90.14
2023-10-23T17:46:23.774Z,90.09
2023-10-23T17:48:56.680Z,90.27
2023-10-23T17:51:31.581Z,90.00
2023-10-23T17:54:06.655Z,90.19
2023-10-23T17:56:39.158Z,90.14
2023-10-23T17:59:12.736Z,90.40
2023-10-23T18:01:47.318Z,90.51
2023-10-23T18:04:20.402Z,90.76
2023-10-23T18:06:54.297Z,90.73
2023-10-23T18:09:28.159Z,90.77
2023-10-23T18:12:02.011Z,91.09
2023-10-23T18:14:34.956Z,91.08
2023-10-23T18:17:07.702Z,91.08
2023-10-23T18:19:40.322Z,90.99
2023-10-23T18:22:13.023Z,91.09
2023-10-23T18:24:46.088Z,91.67
2023-10-23T18:27:18.603Z,91.89
2023-10-23T18:29:51.838Z,92.05
2023-10-23T18:32:24.872Z,92.13
2023-10-23T18:34:58.543Z,92.22
2023-10-23T18:37:31.146Z,92.19
2023-10-23T18:40:03.769Z,92.06
2023-10-23T18:42:38.329Z,92.19
2023-10-23T18:45:12.001Z,92.34
2023-10-23T18:47:44.465Z,92.43
2023-10-23T18:50:17.191Z,92.66
2023-10-23T18:52:51.617Z,92.92
2023-10-23T18:55:25.572Z,92.91
2023-10-23T18:57:58.616Z,93.04
2023-10-23T19:00:31.191Z,93.17
2023-10-23T19:03:04.024Z,93.21
2023-10-23T19:05:38.605Z,93.30
2023-10-23T19:08:11.205Z,93.31
2023-10-23T19:10:43.802Z,93.37
2023-10-23T19:13:16.535Z,93.42
2023-10-23T19:15:56.151Z,93.32
2023-10-23T19:18:31.246Z,93.38
2023-10-23T19:21:06.476Z,93.32
2023-10-23T19:23:39.486Z,93.35
2023-10-23T19:26:12.216Z,93.43
2023-10-23T19:28:45.960Z,93.63
2023-10-23T19:31:23.245Z,93.82
2023-10-23T19:33:58.414Z,93.90
2023-10-23T19:36:33.838Z,93.81
2023-10-23T19:39:09.191Z,93.83
2023-10-23T19:41:49.847Z,93.96
2023-10-23T19:44:25.895Z,94.08
2023-10-23T19:46:59.390Z,94.23
2023-10-23T19:49:33.135Z,94.24
2023-10-23T19:52:12.286Z,94.07
2023-10-23T19:54:51.135Z,93.96
2023-10-23T19:57:25.839Z,93.98
2023-10-23T19:59:58.543Z,94.07
2023-10-23T20:02:31.083Z,94.06
2023-10-23T20:05:05.906Z,94.28
2023-10-23T20:07:38.553Z,94.49
2023-10-23T20:10:14.797Z,94.74
2023-10-23T20:12:48.766Z,95.02
2023-10-23T20:15:22.321Z,95.42
2023-10-23T20:17:54.920Z,95.81
2023-10-23T20:20:27.856Z,95.80
2023-10-23T20:23:00.381Z,96.05
2023-10-23T20:25:33.827Z,96.27
2023-10-23T20:28:07.887Z,96.56
2023-10-23T20:30:40.314Z,96.81
2023-10-23T20:33:13.051Z,96.93
2023-10-23T20:35:46.736Z,97.35
2023-10-23T20:38:19.300Z,97.48
2023-10-23T20:40:53.511Z,97.71
2023-10-23T20:43:26.736Z,97.70
2023-10-23T20:46:01.530Z,97.82
2023-10-23T20:48:34.491Z,97.86
2023-10-23T20:51:11.483Z,97.49
2023-10-23T20:53:44.392Z,97.45
2023-10-23T20:56:16.888Z,97.24
2023-10-23T20:58:49.387Z,97.12
2023-10-23T21:01:22.225Z,97.03
2023-10-23T21:03:55.086Z,96.93
2023-10-23T21:06:33.757Z,96.71
2023-10-23T21:09:06.732Z,96.62
2023-10-23T21:11:39.340Z,96.59
2023-10-23T21:14:12.097Z,96.48
2023-10-23T21:16:44.674Z,96.42
2023-10-23T21:19:18.982Z,96.47
2023-10-23T21:21:51.942Z,96.37
2023-10-23T21:24:24.420Z,96.43
2023-10-23T21:26:57.142Z,96.15
2023-10-23T21:29:29.605Z,96.46
2023-10-23T21:32:02.306Z,96.78
2023-10-23T21:34:34.931Z,96.95
2023-10-23T21:37:07.584Z,97.15
2023-10-23T21:39:40.182Z,97.28
2023-10-23T21:42:13.616Z,97.10
2023-10-23T21:44:46.084Z,96.88
2023-10-23T21:47:18.853Z,96.94
2023-10-23T21:49:53.264Z,96.69
2023-10-23T21:52:27.102Z,96.57
2023-10-23T21:55:02.534Z,96.67
2023-10-23T21:57:36.687Z,96.97
2023-10-23T22:00:19.010Z,97.01
2023-10-23T22:02:52.181Z,97.00
2023-10-23T22:05:27.517Z,96.93
2023-10-23T22:08:01.046Z,96.88
2023-10-23T22:10:34.521Z,96.70
2023-10-23T22:13:09.100Z,96.65
2023-10-23T22:15:41.878Z,96.60
2023-10-23T22:18:16.052Z,96.79
2023-10-23T22:20:48.909Z,96.87
2023-10-23T22:23:21.548Z,96.89
2023-10-23T22:25:54.438Z,96.97
2023-10-23T22:28:26.720Z,96.98
2023-10-23T22:31:00.658Z,97.21
2023-10-23T22:33:33.318Z,97.56
2023-10-23T22:36:05.927Z,97.76
2023-10-23T22:38:38.465Z,97.98
2023-10-23T22:41:10.810Z,98.10
2023-10-23T22:43:43.867Z,98.28
2023-10-23T22:46:16.408Z,98.40
2023-10-23T22:48:49.149Z,98.53
2023-10-23T22:51:22.474Z,98.93
2023-10-23T22:53:55.739Z,98.73
2023-10-23T22:56:29.974Z,98.71
2023-10-23T22:59:08.499Z,98.70
2023-10-23T23:01:42.587Z,98.43
2023-10-23T23:04:16.566Z,98.42
2023-10-23T23:06:53.478Z,98.25
2023-10-23T23:09:27.226Z,98.20
2023-10-23T23:12:00.685Z,98.13
2023-10-23T23:14:34.055Z,98.16
2023-10-23T23:17:08.142Z,98.17
2023-10-23T23:19:44.124Z,98.18
2023-10-23T23:22:17.023Z,98.34
2023-10-23T23:24:49.409Z,98.14
2023-10-23T23:27:22.025Z,97.90
2023-10-23T23:29:55.461Z,98.02
2023-10-23T23:32:29.883Z,97.91
2023-10-23T23:35:02.525Z,98.13
2023-10-23T23:37:34.913Z,98.54
2023-10-23T23:40:08.777Z,98.61
2023-10-23T23:42:41.410Z,98.67
2023-10-23T23:45:15.511Z,98.69
2023-10-23T23:47:48.043Z,98.86
2023-10-23T23:50:20.576Z,98.98
2023-10-23T23:52:54.510Z,99.08
2023-10-23T23:55:28.186Z,99.19
2023-10-23T23:58:00.871Z,99.56
